Hovedside
METAR-TAF:

METAR-TAF

Lufthavner :

Ronneby, Sverige

Ronneby lufthavn

breddegrad: 56-16N, lengdegrad: 015-17E, høyde over havet: 58 m

Gjeldene værobservasjon

Denne rapporten ble laget for 27 minutter siden, klokken 19:50 UTC
Vind 4 kt fra Sør-sørvest
Temperatur 17°C
Luftfuktighet 82%
Trykk 1010 hPa
Sikt 10 km eller mer
Få skyer i en høyde av 4100 ft

METAR: ESDF 281950Z 21004KT 9999 FEW041 17/14 Q1010

Tid: 22:17 (20:17 UTC)

Varsel

Denne rapporten ble laget for 2 timer og 47 minutter siden, klokken 17:30 UTC
Varsel gyldig fra 28. klokken 18 UTC til 28. klokken 22 UTC
Vind 7 kt fra Vest-sørvest
Sikt 10 km eller mer
ingen skyer under 1500 m og ingen bygeskyer

TAF: ESDF 281730Z 2818/2822 25007KT CAVOK

Værobservasjoner og værvarsel for over 4000 flyplasser (METAR- og TAF-rapporter).

Tilgjengelige stasjoner er representert av de røde og gule prikkene på kartet.

Hold musepekeren over prikken for å se navnet på stasjonen.

Klikk så for å se værobservasjoner og -varsler.

For å forandre kartet kan du klikke på den grønne knappen med svart kryss for å zoome inn, på den grønne knappen med strek for å zoome ut, eller på de grønne pilene for å se tilstøtende kart.


METAR-TAF: